Home > Products > Valid Products > MTR

000
SAUS41 KPHI 180255
MTRACY
METAR KACY 180254Z 00000KT 10SM BKN070 17/13 A2997 RMK AO2 SLP149
T01720133 50011





000
SAUS41 KPHI 180255
MTR12N
METAR K12N 180254Z AUTO 00000KT 12/11 A2999 RMK AO1 SLP155 T01220106
51020





000
SAUS41 KPHI 180155
MTR12N
METAR K12N 180154Z AUTO 00000KT 12/11 A2998 RMK AO1 SLP153 T01220106





000
SAUS41 KPHI 180155
MTR12N
METAR K12N 180154Z AUTO 00000KT 12/11 A2998 RMK AO1 SLP153 T01220106





000
SAUS41 KPHI 180155
MTRACY
METAR KACY 180154Z 21003KT 10SM SCT065 BKN080 17/13 A2997 RMK AO2
SLP149 T01670133





000
SAUS41 KPHI 180155
MTRACY
METAR KACY 180154Z 21003KT 10SM SCT065 BKN080 17/13 A2997 RMK AO2
SLP149 T01670133





000
SAUS41 KPHI 180056
MTRACY
METAR KACY 180054Z 19003KT 10SM OVC065 17/13 A2996 RMK AO2 SLP145
T01720133





000
SAUS41 KPHI 180056
MTRACY
METAR KACY 180054Z 19003KT 10SM OVC065 17/13 A2996 RMK AO2 SLP145
T01720133





000
SAUS41 KPHI 180055
MTR12N
METAR K12N 180054Z AUTO 00000KT 13/11 A2995 RMK AO1 SLP142 T01330106





000
SAUS41 KPHI 180055
MTR12N
METAR K12N 180054Z AUTO 00000KT 13/11 A2995 RMK AO1 SLP142 T01330106





000
SAUS41 KPHI 172356
MTRACY
METAR KACY 172354Z 17006KT 10SM FEW075 BKN095 18/14 A2994 RMK AO2
SLP138 T01830139 10233 20183 55001





000
SAUS41 KPHI 172355
MTR12N
METAR K12N 172354Z AUTO 00000KT 16/11 A2993 RMK AO1 SLP134 T01610106
10211 20161 53005





000
SAUS41 KPHI 172255
MTRACY
METAR KACY 172254Z 18006KT 10SM SCT041 BKN048 BKN065 22/14 A2994 RMK
AO2 SLP136 T02170144





000
SAUS41 KPHI 172255
MTR12N
METAR K12N 172254Z AUTO VRB06KT 21/11 A2992 RMK AO1 SLP129 T02060106





000
SAUS41 KPHI 172255
MTR12N
METAR K12N 172254Z AUTO VRB06KT 21/11 A2992 RMK AO1 SLP129 T02060106





000
SAUS41 KPHI 172255
MTRACY
METAR KACY 172254Z 18006KT 10SM SCT041 BKN048 BKN065 22/14 A2994 RMK
AO2 SLP136 T02170144





000
SAUS41 KPHI 172155
MTR12N
METAR K12N 172154Z AUTO VRB05KT 21/11 A2991 RMK AO1 SLP127 T02060111





000
SAUS41 KPHI 172155
MTRACY
METAR KACY 172154Z 25008KT 10SM SCT040 23/14 A2993 RMK AO2 SLP134
T02280139





000
SAUS41 KPHI 172055
MTRACY
METAR KACY 172054Z 25010KT 10SM BKN037 23/14 A2994 RMK AO2 SLP139
T02280139 56024





000
SAUS41 KPHI 172055
MTRACY
METAR KACY 172054Z 25010KT 10SM BKN037 23/14 A2994 RMK AO2 SLP139
T02280139 56024





000
SAUS41 KPHI 172055
MTR12N
METAR K12N 172054Z AUTO 21007KT 20/12 A2991 RMK AO1 SLP128 T02000122
58021





000
SAUS41 KPHI 172055
MTR12N
METAR K12N 172054Z AUTO 21007KT 20/12 A2991 RMK AO1 SLP128 T02000122
58021





000
SAUS41 KPHI 171956
MTRACY
METAR KACY 171954Z 24011KT 10SM BKN036 23/14 A2996 RMK AO2 SLP144
T02280144





000
SAUS41 KPHI 171956
MTRACY
METAR KACY 171954Z 24011KT 10SM BKN036 23/14 A2996 RMK AO2 SLP144
T02280144





000
SAUS41 KPHI 171955
MTR12N
METAR K12N 171954Z AUTO VRB05KT 20/13 A2993 RMK AO1 SLP135 T02000128





000
SAUS41 KPHI 171921
MTRACY
SPECI KACY 171920Z 25007G17KT 220V280 10SM BKN031 22/14 A2998 RMK
AO2 T02170139





000
SAUS41 KPHI 171855
MTRACY
METAR KACY 171854Z 25008KT 10SM OVC027 22/14 A2999 RMK AO2 SLP153
T02170144





000
SAUS41 KPHI 171855
MTR12N
METAR K12N 171854Z AUTO 23010G15KT 200V260 19/12 A2996 RMK AO1
SLP145 T01890122





000
SAUS41 KPHI 171855
MTRACY
METAR KACY 171854Z 25008KT 10SM OVC027 22/14 A2999 RMK AO2 SLP153
T02170144





000
SAUS41 KPHI 171855
MTR12N
METAR K12N 171854Z AUTO 23010G15KT 200V260 19/12 A2996 RMK AO1
SLP145 T01890122





000
SAUS41 KPHI 171755
MTR12N
METAR K12N 171754Z AUTO 21004KT 17/12 A2998 RMK AO1 SLP151 T01670122
10167 20122 58018





000
SAUS41 KPHI 171755
MTRACY
METAR KACY 171754Z 23007KT 10SM OVC018 20/14 A3001 RMK AO2 SLP163
60007 T02000144 10200 20128 56027





000
SAUS41 KPHI 171703
MTRACY
SPECI KACY 171702Z 24009KT 10SM OVC015 18/14 A3004 RMK AO2 T01830144





000
SAUS41 KPHI 171703
MTRACY
SPECI KACY 171702Z 24009KT 10SM OVC015 18/14 A3004 RMK AO2 T01830144





000
SAUS41 KPHI 171655
MTR12N
METAR K12N 171654Z AUTO VRB05KT 15/12 A3001 RMK AO1 SLP160 T01500122





000
SAUS41 KPHI 171655
MTRACY
METAR KACY 171654Z AUTO 23009KT 10SM OVC014 18/14 A3004 RMK AO2
SLP173 T01830144 TSNO





000
SAUS41 KPHI 171605
MTRACY
SPECI KACY 171604Z 22009KT 10SM BKN013 17/14 A3006 RMK AO2 T01720144
$





000
SAUS41 KPHI 171556
MTRACY
METAR KACY 171554Z 23011KT 10SM SCT011 SCT018 BKN048 17/14 A3006 RMK
AO2 SLP178 T01720139 $





000
SAUS41 KPHI 171555
MTR12N
METAR K12N 171554Z AUTO VRB05KT 14/12 A3003 RMK AO1 SLP169 T01440117





000
SAUS41 KPHI 171548
MTRACY
SPECI KACY 171547Z 21009KT 10SM FEW011 SCT018 SCT048 17/14 A3006 RMK
AO2 T01720144 $





000
SAUS41 KPHI 171508
MTRACY
SPECI KACY 171507Z 22008KT 10SM FEW007 OVC020 15/13 A3009 RMK AO2
T01500133 $





000
SAUS41 KPHI 171508
MTRACY
SPECI KACY 171507Z 22008KT 10SM FEW007 OVC020 15/13 A3009 RMK AO2
T01500133 $





000
SAUS41 KPHI 171455
MTR12N
METAR K12N 171454Z AUTO 00000KT 14/12 A3003 RMK AO1 SLP169 T01390117
58018





000
SAUS41 KPHI 171455
MTRACY
METAR KACY 171454Z 21007KT 10SM 15/13 A3010 RMK AO2 RAB10E25 SLP190
P0001 60007 T01500133 $





000
SAUS41 KPHI 171455
MTRACY
METAR KACY 171454Z 21007KT 10SM 15/13 A3010 RMK AO2 RAB10E25 SLP190
P0001 60007 T01500133 $





000
SAUS41 KPHI 171455
MTR12N
METAR K12N 171454Z AUTO 00000KT 14/12 A3003 RMK AO1 SLP169 T01390117
58018





000
SAUS41 KPHI 171402
MTRACY
SPECI KACY 171401Z 19006KT 3SM -RA BR BKN025 OVC030 14/13 A3011 RMK
AO2 P0001 T01390128





000
SAUS41 KPHI 171402
MTRACY
SPECI KACY 171401Z 19006KT 3SM -RA BR BKN025 OVC030 14/13 A3011 RMK
AO2 P0001 T01390128





000
SAUS41 KPHI 171355
MTR12N
METAR K12N 171354Z AUTO 20005KT 13/12 A3005 RMK AO1 SLP177 T01280117





000
SAUS41 KPHI 171355
MTRACY
METAR KACY 171354Z 21005KT 2SM -RA BR BKN027 OVC033 14/13 A3011 RMK
AO2 SLP197 P0004 T01390128





000
SAUS41 KPHI 171353
MTRACY
SPECI KACY 171352Z 22005KT 2 1/2SM -RA BR BKN027 OVC033 14/13 A3012
RMK AO2 P0004





000
SAUS41 KPHI 171332
MTRACY
SPECI KACY 171330Z 20006KT 4SM -RA BR FEW022 SCT027 OVC037 14/13
A3012 RMK AO2 P0003 T01390128





000
SAUS41 KPHI 171319
MTRACY
SPECI KACY 171317Z 20005KT 7SM -RA SCT022 BKN027 OVC035 14/13 A3012
RMK AO2 P0002 T01390128





000
SAUS41 KPHI 171311
MTRACY
SPECI KACY 171310Z 19005KT 2 1/2SM -RA BR SCT022 BKN027 OVC035 13/13
A3013 RMK AO2 P0002 T01330128





000
SAUS41 KPHI 171303
MTRACY
SPECI KACY 171302Z 21005KT 3SM RA BR SCT022 BKN027 OVC045 13/12
A3013 RMK AO2 P0001 T01330122





000
SAUS41 KPHI 171255
MTRACY
METAR KACY 171254Z 21004KT 3SM -RA BR SCT027 BKN034 OVC045 13/12
A3013 RMK AO2 RAB1156 SLP203 P0002 T01330122





000
SAUS41 KPHI 171255
MTR12N
METAR K12N 171254Z AUTO 22007G14KT 13/11 A3007 RMK AO1 SLP184
T01280111





000
SAUS41 KPHI 171255
MTR12N
METAR K12N 171254Z AUTO 22007G14KT 13/11 A3007 RMK AO1 SLP184
T01280111





000
SAUS41 KPHI 171255
MTRACY
METAR KACY 171254Z 21004KT 3SM -RA BR SCT027 BKN034 OVC045 13/12
A3013 RMK AO2 RAB1156 SLP203 P0002 T01330122





000
SAUS41 KPHI 171251
MTRACY
SPECI KACY 171250Z 21004KT 2SM -RA BR FEW027 BKN042 OVC050 13/12
A3014 RMK AO2 RAB1156 P0002





000
SAUS41 KPHI 171226
MTRACY
SPECI KACY 171225Z 21005KT 4SM -RA BR FEW024 BKN035 OVC050 13/12
A3014 RMK AO2 RAB1156 P0001 T01330122 $





000
SAUS41 KPHI 171155
MTRACY
METAR KACY 171154Z AUTO 21004KT 8SM BKN027 OVC039 13/12 A3015 RMK
AO2 RAB06E53 SLP209 P0005 60017 70017 T01280117 10139 20117 TSNO $





000
SAUS41 KPHI 171155
MTR12N
METAR K12N 171154Z AUTO 12/11 A3009 RMK AO1 SLP188 60009 70011
T01220111 10122 20100 56009





000
SAUS41 KPHI 171141
MTRACY
SPECI KACY 171140Z AUTO 24003KT 4SM -RA BR FEW029 OVC040 13/12 A3015
RMK AO2 RAB06 P0004 T01280117 TSNO $





000
SAUS41 KPHI 171141
MTRACY
SPECI KACY 171140Z AUTO 24003KT 4SM -RA BR FEW029 OVC040 13/12 A3015
RMK AO2 RAB06 P0004 T01280117 TSNO $





000
SAUS41 KPHI 171132
MTRACY
SPECI KACY 171131Z AUTO 20004KT 2 1/2SM RA BR FEW032 OVC042 13/12
A3015 RMK AO2 RAB06 P0003 T01280117 TSNO $





000
SAUS41 KPHI 171056
MTRACY
METAR KACY 171054Z AUTO 21004KT 10SM 12/11 A3015 RMK AO2
RAB06B18B32E44 SLP210 P0006 T01220111 TSNO $





000
SAUS41 KPHI 171056
MTRACY
METAR KACY 171054Z AUTO 21004KT 10SM 12/11 A3015 RMK AO2
RAB06B18B32E44 SLP210 P0006 T01220111 TSNO $





000
SAUS41 KPHI 171055
MTR12N
METAR K12N 171054Z AUTO 21005KT 12/11 A3009 RMK AO1 SLP189 P0001
T01170106





000
SAUS41 KPHI 171055
MTR12N
METAR K12N 171054Z AUTO 21005KT 12/11 A3009 RMK AO1 SLP189 P0001
T01170106





000
SAUS41 KPHI 170955
MTRACY
METAR KACY 170954Z AUTO 22005KT 7SM -RA 12/11 A3016 RMK AO2 RAB44
SLP213 P0005 T01220106 TSNO $





000
SAUS41 KPHI 170955
MTR12N
METAR K12N 170954Z AUTO 21006KT 12/11 A3010 RMK AO1 SLP193 P0001
T01170106





000
SAUS41 KPHI 170856
MTR12N
METAR K12N 170854Z AUTO VRB04KT 11/10 A3011 RMK AO1 SLP196 P0003
60007 T01110100 56025





000
SAUS41 KPHI 170856
MTRACY
METAR KACY 170854Z 10SM -RA FEW038 BKN075 OVC090 13/10 A3017 RMK AO2
RAB23 SLP215 P0001 60001 T01280100 56023





000
SAUS41 KPHI 170755
MTR12N
METAR K12N 170754Z AUTO 00000KT 11/10 A3013 RMK AO1 SLP204 P0002
T01060100





000
SAUS41 KPHI 170755
MTRACY
METAR KACY 170754Z 17006KT 10SM SCT042 OVC110 13/09 A3018 RMK AO2
SLP219 T01330094





000
SAUS41 KPHI 170755
MTRACY
METAR KACY 170754Z 17006KT 10SM SCT042 OVC110 13/09 A3018 RMK AO2
SLP219 T01330094





000
SAUS41 KPHI 170755
MTR12N
METAR K12N 170754Z AUTO 00000KT 11/10 A3013 RMK AO1 SLP204 P0002
T01060100





000
SAUS41 KPHI 170655
MTRACY
METAR KACY 170654Z 16010KT 10SM CLR 14/08 A3020 RMK AO2 SLP227
T01390083





000
SAUS41 KPHI 170655
MTR12N
METAR K12N 170654Z AUTO 00000KT 10/09 A3016 RMK AO1 SLP211 P0002
T01000094





000
SAUS41 KPHI 170555
MTR12N
METAR K12N 170554Z AUTO 00000KT 10/09 A3019 RMK AO1 SLP222 P0002
60002 T01000094 10133 20100 58019





000
SAUS41 KPHI 170555
MTRACY
METAR KACY 170554Z 18007KT 10SM SCT110 14/08 A3023 RMK AO2 SLP237
T01390078 10144 20139 58020





000
SAUS41 KPHI 170555
MTR12N
METAR K12N 170554Z AUTO 00000KT 10/09 A3019 RMK AO1 SLP222 P0002
60002 T01000094 10133 20100 58019





000
SAUS41 KPHI 170555
MTRACY
METAR KACY 170554Z 18007KT 10SM SCT110 14/08 A3023 RMK AO2 SLP237
T01390078 10144 20139 58020





000
SAUS41 KPHI 170456
MTR12N
METAR K12N 170454Z AUTO 20003KT 13/06 A3022 RMK AO1 SLP232 T01280056
401830022





000
SAUS41 KPHI 170456
MTRACY
METAR KACY 170454Z 17007G16KT 10SM OVC120 14/08 A3026 RMK AO2 SLP246
T01440078 401890039





000
SAUS41 KPHI 170456
MTR12N
METAR K12N 170454Z AUTO 20003KT 13/06 A3022 RMK AO1 SLP232 T01280056
401830022





000
SAUS41 KPHI 170355
MTR12N
METAR K12N 170354Z AUTO VRB03KT 12/04 A3023 RMK AO1 SLP236 T01220044





000
SAUS41 KPHI 170355
MTRACY
METAR KACY 170354Z 17009KT 10SM CLR 14/08 A3027 RMK AO2 SLP250
T01390083





000
SAUS41 KPHI 170255
MTR12N
METAR K12N 170254Z AUTO 21006KT 12/03 A3024 RMK AO1 SLP241 T01220033
58012





000
SAUS41 KPHI 170255
MTR12N
METAR K12N 170254Z AUTO 21006KT 12/03 A3024 RMK AO1 SLP241 T01220033
58012





000
SAUS41 KPHI 170255
MTRACY
METAR KACY 170254Z 18009KT 10SM CLR 14/08 A3029 RMK AO2 SLP258
T01390083 58008





000
SAUS41 KPHI 170255
MTRACY
METAR KACY 170254Z 18009KT 10SM CLR 14/08 A3029 RMK AO2 SLP258
T01390083 58008





000
SAUS41 KPHI 170155
MTR12N
METAR K12N 170154Z AUTO 19007KT 150V210 12/02 A3027 RMK AO1 SLP250
T01220022





000
SAUS41 KPHI 170155
MTRACY
METAR KACY 170154Z 19006KT 10SM FEW120 14/08 A3032 RMK AO2 SLP265
T01440078





000
SAUS41 KPHI 170155
MTRACY
METAR KACY 170154Z 19006KT 10SM FEW120 14/08 A3032 RMK AO2 SLP265
T01440078





000
SAUS41 KPHI 170155
MTR12N
METAR K12N 170154Z AUTO 19007KT 150V210 12/02 A3027 RMK AO1 SLP250
T01220022





000
SAUS41 KPHI 170055
MTRACY
METAR KACY 170054Z 16010KT 10SM CLR 14/08 A3032 RMK AO2 SLP265
T01440083





000
SAUS41 KPHI 170055
MTR12N
METAR K12N 170054Z AUTO 20004KT 13/00 A3028 RMK AO1 SLP255 T01280000





000
SAUS41 KPHI 170055
MTRACY
METAR KACY 170054Z 16010KT 10SM CLR 14/08 A3032 RMK AO2 SLP265
T01440083





000
SAUS41 KPHI 170055
MTR12N
METAR K12N 170054Z AUTO 20004KT 13/00 A3028 RMK AO1 SLP255 T01280000





000
SAUS41 KPHI 162355
MTR12N
METAR K12N 162354Z AUTO 18003KT 13/M01 A3028 RMK AO1 SLP257
T01331006 10183 20133 55013





000
SAUS41 KPHI 162355
MTR12N
METAR K12N 162354Z AUTO 18003KT 13/M01 A3028 RMK AO1 SLP257
T01331006 10183 20133 55013





000
SAUS41 KPHI 162355
MTRACY
METAR KACY 162354Z 15007KT 10SM CLR 14/08 A3032 RMK AO2 SLP265
T01440078 10189 20144 58013





000
SAUS41 KPHI 162355
MTRACY
METAR KACY 162354Z 15007KT 10SM CLR 14/08 A3032 RMK AO2 SLP265
T01440078 10189 20144 58013





000
SAUS41 KPHI 162255
MTRACY
METAR KACY 162254Z 17005KT 10SM CLR 14/07 A3033 RMK AO2 SLP270
T01440072





000
SAUS41 KPHI 162255
MTR12N
METAR K12N 162254Z AUTO VRB03KT 15/M01 A3028 RMK AO1 SLP257
T01501011





000
SAUS41 KPHI 162255
MTRACY
METAR KACY 162254Z 17005KT 10SM CLR 14/07 A3033 RMK AO2 SLP270
T01440072





000
SAUS41 KPHI 162255
MTR12N
METAR K12N 162254Z AUTO VRB03KT 15/M01 A3028 RMK AO1 SLP257
T01501011





000
SAUS41 KPHI 162155
MTR12N
METAR K12N 162154Z AUTO VRB05KT 17/M02 A3030 RMK AO1 SLP262
T01671022





000
SAUS41 KPHI 162155
MTRACY
METAR KACY 162154Z 16009KT 10SM CLR 16/04 A3035 RMK AO2 SLP278
T01610039





000
SAUS41 KPHI 162055
MTR12N
METAR K12N 162054Z AUTO 18007KT 140V210 17/M03 A3032 RMK AO1 SLP269
T01721028 56024





000
SAUS41 KPHI 162055
MTRACY
METAR KACY 162054Z 12008KT 10SM CLR 18/06 A3036 RMK AO2 SLP279
T01780061 58022





000
SAUS41 KPHI 161955
MTRACY
METAR KACY 161954Z 13008KT 10SM CLR 18/06 A3038 RMK AO2 SLP286
T01780061





000
SAUS41 KPHI 161955
MTR12N
METAR K12N 161954Z AUTO 20007KT 160V230 18/M03 A3034 RMK AO1 SLP276
T01781033





000
SAUS41 KPHI 161955
MTR12N
METAR K12N 161954Z AUTO 20007KT 160V230 18/M03 A3034 RMK AO1 SLP276
T01781033





000
SAUS41 KPHI 161955
MTRACY
METAR KACY 161954Z 13008KT 10SM CLR 18/06 A3038 RMK AO2 SLP286
T01780061





000
SAUS41 KPHI 161855
MTR12N
METAR K12N 161854Z AUTO 18007KT 150V220 18/M04 A3036 RMK AO1 SLP285
T01781044





000
SAUS41 KPHI 161855
MTRACY
METAR KACY 161854Z 13006KT 10SM CLR 17/06 A3040 RMK AO2 SLP294
T01720061





000
SAUS41 KPHI 161755
MTRACY
METAR KACY 161754Z 09009KT 10SM CLR 16/05 A3042 RMK AO2 SLP301
T01610050 10172 20106 58013





000
SAUS41 KPHI 161755
MTR12N
METAR K12N 161754Z AUTO 20008KT 160V230 17/M06 A3039 RMK AO1 SLP293
T01721061 10172 20067 58022





000
SAUS41 KPHI 161755
MTRACY
METAR KACY 161754Z 09009KT 10SM CLR 16/05 A3042 RMK AO2 SLP301
T01610050 10172 20106 58013





000
SAUS41 KPHI 161755
MTR12N
METAR K12N 161754Z AUTO 20008KT 160V230 17/M06 A3039 RMK AO1 SLP293
T01721061 10172 20067 58022





000
SAUS41 KPHI 161655
MTR12N
METAR K12N 161654Z AUTO 18007G14KT 16/M07 A3041 RMK AO1 SLP302
T01611067





000
SAUS41 KPHI 161655
MTRACY
METAR KACY 161654Z 10009KT 10SM CLR 16/03 A3044 RMK AO2 SLP308
T01610033





000
SAUS41 KPHI 161555
MTR12N
METAR K12N 161554Z AUTO 18007KT 150V230 16/M06 A3044 RMK AO1 SLP309
T01611061





000
SAUS41 KPHI 161555
MTRACY
METAR KACY 161554Z 06010KT 10SM CLR 16/02 A3046 RMK AO2 SLP313
T01560017





000
SAUS41 KPHI 161555
MTR12N
METAR K12N 161554Z AUTO 18007KT 150V230 16/M06 A3044 RMK AO1 SLP309
T01611061





000
SAUS41 KPHI 161555
MTRACY
METAR KACY 161554Z 06010KT 10SM CLR 16/02 A3046 RMK AO2 SLP313
T01560017





000
SAUS41 KPHI 161455
MTR12N
METAR K12N 161454Z AUTO 18007KT 150V210 14/M07 A3046 RMK AO1 SLP316
T01441072 58006





000
SAUS41 KPHI 161455
MTRACY
METAR KACY 161454Z 08010KT 10SM CLR 15/M01 A3046 RMK AO2 SLP314
T01501006 53006





000
SAUS41 KPHI 161355
MTR12N
METAR K12N 161354Z AUTO VRB06KT 13/M08 A3047 RMK AO1 SLP319
T01331083





000
SAUS41 KPHI 161355
MTRACY
METAR KACY 161354Z 09013G18KT 10SM CLR 15/M01 A3045 RMK AO2 SLP312
T01501006





000
SAUS41 KPHI 161255
MTRACY
METAR KACY 161254Z 06011KT 10SM CLR 12/00 A3044 RMK AO2 SLP309
T01170000





000
SAUS41 KPHI 161255
MTR12N
METAR K12N 161254Z AUTO 00000KT 10/M02 A3047 RMK AO1 SLP320
T01001017





000
SAUS41 KPHI 161255
MTRACY
METAR KACY 161254Z 06011KT 10SM CLR 12/00 A3044 RMK AO2 SLP309
T01170000





000
SAUS41 KPHI 161255
MTR12N
METAR K12N 161254Z AUTO 00000KT 10/M02 A3047 RMK AO1 SLP320
T01001017





000
SAUS41 KPHI 161155
MTRACY
METAR KACY 161154Z 07013KT 10SM CLR 11/01 A3044 RMK AO2 SLP308 7////
T01060006 10106 20039 53013 $





000
SAUS41 KPHI 161155
MTR12N
METAR K12N 161154Z AUTO 00000KT 06/M01 A3048 RMK AO1 SLP322
T00611006 10061 20022 53012





000
SAUS41 KPHI 161055
MTR12N
METAR K12N 161054Z AUTO 00000KT 03/M01 A3046 RMK AO1 SLP317
T00331006





000
SAUS41 KPHI 161055
MTRACY
METAR KACY 161054Z 06006KT 10SM CLR 07/01 A3042 RMK AO2 SLP301
T00720006





000
SAUS41 KPHI 160955
MTR12N
METAR K12N 160954Z AUTO 00000KT 03/M01 A3044 RMK AO1 SLP311
T00281006





000
SAUS41 KPHI 160955
MTRACY
METAR KACY 160954Z 00000KT 10SM CLR 04/01 A3040 RMK AO2 SLP295
T00440006





000
SAUS41 KPHI 160855
MTRACY
METAR KACY 160854Z 00000KT 10SM CLR 07/01 A3040 RMK AO2 SLP294
T00720006 53013





000
SAUS41 KPHI 160855
MTR12N
METAR K12N 160854Z AUTO 00000KT 03/01 A3044 RMK AO1 SLP309 T00280006
53017





000
SAUS41 KPHI 160755
MTR12N
METAR K12N 160754Z AUTO 00000KT 03/01 A3042 RMK AO1 SLP304 T00280006





000
SAUS41 KPHI 160755
MTRACY
METAR KACY 160754Z 00000KT 10SM CLR 08/M01 A3039 RMK AO2 SLP290
T00781006





000
SAUS41 KPHI 160655
MTRACY
METAR KACY 160654Z 00000KT 10SM CLR 06/01 A3037 RMK AO2 SLP282
T00610006





000
SAUS41 KPHI 160655
MTR12N
METAR K12N 160654Z AUTO 00000KT 03/01 A3040 RMK AO1 SLP296 T00330006





000
SAUS41 KPHI 160555
MTRACY
METAR KACY 160554Z 00000KT 10SM CLR 06/01 A3036 RMK AO2 SLP281
T00560006 10133 20056 51014





000
SAUS41 KPHI 160555
MTR12N
METAR K12N 160554Z AUTO 00000KT 04/02 A3039 RMK AO1 SLP292 T00440017
10156 20044 51008





000
SAUS41 KPHI 160555
MTR12N
METAR K12N 160554Z AUTO 00000KT 04/02 A3039 RMK AO1 SLP292 T00440017
10156 20044 51008





000
SAUS41 KPHI 160555
MTRACY
METAR KACY 160554Z 00000KT 10SM CLR 06/01 A3036 RMK AO2 SLP281
T00560006 10133 20056 51014





000
SAUS41 KPHI 160456
MTR12N
METAR K12N 160454Z AUTO 00000KT 05/02 A3038 RMK AO1 SLP291 T00500022
402000028





000
SAUS41 KPHI 160455
MTRACY
METAR KACY 160454Z 00000KT 10SM CLR 06/M01 A3035 RMK AO2 SLP276
T00611006 402110056





000
SAUS41 KPHI 160455
MTRACY
METAR KACY 160454Z 00000KT 10SM CLR 06/M01 A3035 RMK AO2 SLP276
T00611006 402110056





000
SAUS41 KPHI 160355
MTR12N
METAR K12N 160354Z AUTO 00000KT 07/01 A3037 RMK AO1 SLP287 T00720006





000
SAUS41 KPHI 160355
MTRACY
METAR KACY 160354Z AUTO 00000KT 10SM CLR 09/M02 A3034 RMK AO2 SLPNO
T00891022 TSNO





000
SAUS41 KPHI 160355
MTR12N
METAR K12N 160354Z AUTO 00000KT 07/01 A3037 RMK AO1 SLP287 T00720006





000
SAUS41 KPHI 160355
MTRACY
METAR KACY 160354Z AUTO 00000KT 10SM CLR 09/M02 A3034 RMK AO2 SLPNO
T00891022 TSNO





000
SAUS41 KPHI 160255
MTR12N
METAR K12N 160254Z AUTO 01003KT 08/02 A3036 RMK AO1 SLP284 T00780017
51029





000
SAUS41 KPHI 160255
MTRACY
METAR KACY 160254Z 00000KT 10SM CLR 09/M03 A3032 RMK AO2 SLPNO
T00891028 51019





000
SAUS41 KPHI 160255
MTR12N
METAR K12N 160254Z AUTO 01003KT 08/02 A3036 RMK AO1 SLP284 T00780017
51029





000
SAUS41 KPHI 160255
MTRACY
METAR KACY 160254Z 00000KT 10SM CLR 09/M03 A3032 RMK AO2 SLPNO
T00891028 51019





000
SAUS41 KPHI 160155
MTR12N
METAR K12N 160154Z AUTO 00000KT 09/01 A3035 RMK AO1 SLP278 T00940011





000
SAUS41 KPHI 160155
MTRACY
METAR KACY 160154Z 23003KT 10SM CLR 11/M02 A3031 RMK AO2 SLPNO
T01111017





000
SAUS41 KPHI 160155
MTR12N
METAR K12N 160154Z AUTO 00000KT 09/01 A3035 RMK AO1 SLP278 T00940011





000
SAUS41 KPHI 160155
MTRACY
METAR KACY 160154Z 23003KT 10SM CLR 11/M02 A3031 RMK AO2 SLPNO
T01111017





000
SAUS41 KPHI 160056
MTRACY
METAR KACY 160054Z 21003KT 10SM CLR 12/M02 A3031 RMK AO2 SLPNO
T01171022





000
SAUS41 KPHI 160055
MTR12N
METAR K12N 160054Z AUTO 00000KT 12/M05 A3031 RMK AO1 SLP265
T01171050





000
SAUS41 KPHI 152355
MTRACY
METAR KACY 152354Z 20004KT 10SM CLR 13/M03 A3027 RMK AO2 SLPNO
T01331028 10211 20133 53016





000
SAUS41 KPHI 152355
MTR12N
METAR K12N 152354Z AUTO 36004KT 16/M07 A3028 RMK AO1 SLP252
T01611072 10200 20156 53022





000
SAUS41 KPHI 152255
MTR12N
METAR K12N 152254Z AUTO 36006KT 17/M07 A3025 RMK AO1 SLP243
T01721072





000
SAUS41 KPHI 152255
MTRACY
METAR KACY 152254Z 19004KT 10SM CLR 15/M05 A3024 RMK AO2 SLPNO
T01501050





000
SAUS41 KPHI 152155
MTR12N
METAR K12N 152154Z AUTO 34008KT 18/M07 A3022 RMK AO1 SLP235
T01831072





000
SAUS41 KPHI 152155
MTRACY
METAR KACY 152154Z 18005KT 10SM CLR 16/M03 A3023 RMK AO2 SLPNO
T01611033





000
SAUS41 KPHI 152055
MTRACY
METAR KACY 152054Z 14006KT 10SM CLR 17/M03 A3022 RMK AO2 SLPNO
T01671033 53003





000
SAUS41 KPHI 152055
MTR12N
METAR K12N 152054Z AUTO 01006KT 19/M08 A3021 RMK AO1 SLP230
T01891078 55001





000
SAUS41 KPHI 151955
MTRACY
METAR KACY 151954Z 14009KT 10SM CLR 18/M02 A3020 RMK AO2 SLPNO
T01831022





000
SAUS41 KPHI 151955
MTR12N
METAR K12N 151954Z AUTO 36006G15KT 19/M08 A3019 RMK AO1 SLP223
T01941083





000
SAUS41 KPHI 151955
MTR12N
METAR K12N 151954Z AUTO 36006G15KT 19/M08 A3019 RMK AO1 SLP223
T01941083





000
SAUS41 KPHI 151955
MTRACY
METAR KACY 151954Z 14009KT 10SM CLR 18/M02 A3020 RMK AO2 SLPNO
T01831022





000
SAUS41 KPHI 151855
MTR12N
METAR K12N 151854Z AUTO 35008G16KT 320V020 19/M08 A3021 RMK AO1
SLP229 T01891078





000
SAUS41 KPHI 151855
MTRACY
METAR KACY 151854Z 02012KT 10SM CLR 21/M04 A3020 RMK AO2 SLPNO
T02061044





000
SAUS41 KPHI 151855
MTR12N
METAR K12N 151854Z AUTO 35008G16KT 320V020 19/M08 A3021 RMK AO1
SLP229 T01891078





000
SAUS41 KPHI 151855
MTRACY
METAR KACY 151854Z 02012KT 10SM CLR 21/M04 A3020 RMK AO2 SLPNO
T02061044





000
SAUS41 KPHI 151755
MTR12N
METAR K12N 151754Z AUTO VRB06KT 18/M08 A3021 RMK AO1 SLP231
T01831083 10189 20100 56002





000
SAUS41 KPHI 151755
MTRACY
METAR KACY 151754Z AUTO 32009G16KT 10SM CLR 19/M04 A3021 RMK AO2
SLPNO 6//// T01941044 TSNO





000
SAUS41 KPHI 151656
MTRACY
METAR KACY 151654Z AUTO VRB06KT 10SM CLR 18/M04 A3021 RMK AO2 SLPNO
T01831044 TSNO





000
SAUS41 KPHI 151656
MTR12N
METAR K12N 151654Z AUTO VRB04KT 17/M07 A3021 RMK AO1 SLP231
T01721067





000
SAUS41 KPHI 151555
MTR12N
METAR K12N 151554Z AUTO 33008G16KT 16/M07 A3022 RMK AO1 SLP232
T01611067





000
SAUS41 KPHI 151455
MTR12N
METAR K12N 151454Z AUTO 36008G17KT 340V040 14/M06 A3022 RMK AO1
SLP233 T01391061 53007





000
SAUS41 KPHI 151455
MTR12N
METAR K12N 151454Z AUTO 36008G17KT 340V040 14/M06 A3022 RMK AO1
SLP233 T01391061 53007





000
SAUS41 KPHI 151455
MTRACY
METAR KACY 151454Z 35015KT 10SM CLR 15/M03 A3019 RMK AO2 SLP221
T01501028 51006





000
SAUS41 KPHI 151355
MTRACY
METAR KACY 151354Z 36015G23KT 10SM CLR 14/M02 A3017 RMK AO2 SLP217
T01441017





000
SAUS41 KPHI 151355
MTR12N
METAR K12N 151354Z AUTO 01007G17KT 350V050 13/M07 A3021 RMK AO1
SLP230 T01331067





000
SAUS41 KPHI 151355
MTRACY
METAR KACY 151354Z 36015G23KT 10SM CLR 14/M02 A3017 RMK AO2 SLP217
T01441017





000
SAUS41 KPHI 151355
MTR12N
METAR K12N 151354Z AUTO 01007G17KT 350V050 13/M07 A3021 RMK AO1
SLP230 T01331067





000
SAUS41 KPHI 151255
MTRACY
METAR KACY 151254Z 35011KT 10SM CLR 13/00 A3019 RMK AO2 SLP221
T01280000





000
SAUS41 KPHI 151255
MTR12N
METAR K12N 151254Z AUTO 01007KT 330V050 12/M06 A3020 RMK AO1 SLP228
T01171061





000
SAUS41 KPHI 151255
MTRACY
METAR KACY 151254Z 35011KT 10SM CLR 13/00 A3019 RMK AO2 SLP221
T01280000





000
SAUS41 KPHI 151255
MTR12N
METAR K12N 151254Z AUTO 01007KT 330V050 12/M06 A3020 RMK AO1 SLP228
T01171061





000
SAUS41 KPHI 151155
MTRACY
METAR KACY 151154Z 35008KT 8SM CLR 11/02 A3017 RMK AO2 SLP215 70042
T01060017 10106 20061 53023 $





000
SAUS41 KPHI 151155
MTR12N
METAR K12N 151154Z AUTO 01006KT 10/M06 A3020 RMK AO1 SLP227
T01001061 10100 20028 53013





000
SAUS41 KPHI 151155
MTR12N
METAR K12N 151154Z AUTO 01006KT 10/M06 A3020 RMK AO1 SLP227
T01001061 10100 20028 53013





000
SAUS41 KPHI 151155
MTRACY
METAR KACY 151154Z 35008KT 8SM CLR 11/02 A3017 RMK AO2 SLP215 70042
T01060017 10106 20061 53023 $





000
SAUS41 KPHI 151055
MTR12N
METAR K12N 151054Z AUTO VRB03KT 08/M05 A3018 RMK AO1 SLP222
T00831050





000
SAUS41 KPHI 151055
MTRACY
METAR KACY 151054Z AUTO 35008KT 10SM CLR 08/03 A3014 RMK AO2 SLP205
T00780033 TSNO $





000
SAUS41 KPHI 151055
MTR12N
METAR K12N 151054Z AUTO VRB03KT 08/M05 A3018 RMK AO1 SLP222
T00831050





000
SAUS41 KPHI 151055
MTRACY
METAR KACY 151054Z AUTO 35008KT 10SM CLR 08/03 A3014 RMK AO2 SLP205
T00780033 TSNO $





000
SAUS41 KPHI 150955
MTR12N
METAR K12N 150954Z AUTO 00000KT 04/00 A3017 RMK AO1 SLP217 T00390000





000
SAUS41 KPHI 150955
MTRACY
METAR KACY 150954Z AUTO 35007KT 10SM CLR 08/04 A3012 RMK AO2 SLP199
T00780039 TSNO $





000
SAUS41 KPHI 150955
MTR12N
METAR K12N 150954Z AUTO 00000KT 04/00 A3017 RMK AO1 SLP217 T00390000





000
SAUS41 KPHI 150955
MTRACY
METAR KACY 150954Z AUTO 35007KT 10SM CLR 08/04 A3012 RMK AO2 SLP199
T00780039 TSNO $





000
SAUS41 KPHI 150855
MTRACY
METAR KACY 150854Z 32005KT 10SM CLR 07/05 A3010 RMK AO2 SLP192
T00670050 55004 $





000
SAUS41 KPHI 150855
MTR12N
METAR K12N 150854Z AUTO 00000KT 06/01 A3016 RMK AO1 SLP213 T00560011
53004





000
SAUS41 KPHI 150755
MTRACY
METAR KACY 150754Z 32005KT 10SM CLR 07/06 A3010 RMK AO2 SLP192
T00720056 $





000
SAUS41 KPHI 150755
MTR12N
METAR K12N 150754Z AUTO 00000KT 07/01 A3015 RMK AO1 SLP208 T00670011





000
SAUS41 KPHI 150655
MTRACY
METAR KACY 150654Z 34003KT 10SM SCT100 09/07 A3010 RMK AO2 SLP192
T00890067 $





000
SAUS41 KPHI 150655
MTR12N
METAR K12N 150654Z AUTO 00000KT 07/02 A3015 RMK AO1 SLP210 T00670022





000
SAUS41 KPHI 150655
MTR12N
METAR K12N 150654Z AUTO 00000KT 07/02 A3015 RMK AO1 SLP210 T00670022





000
SAUS41 KPHI 150655
MTRACY
METAR KACY 150654Z 34003KT 10SM SCT100 09/07 A3010 RMK AO2 SLP192
T00890067 $





000
SAUS41 KPHI 150555
MTRACY
METAR KACY 150554Z 33005KT 10SM FEW060 SCT090 BKN110 09/07 A3011 RMK
AO2 SLP197 60001 T00940072 10111 20094 51013 $





000
SAUS41 KPHI 150555
MTR12N
METAR K12N 150554Z AUTO 04003KT 07/03 A3015 RMK AO1 SLP208 T00720028
10133 20072 53002





000
SAUS41 KPHI 150555
MTR12N
METAR K12N 150554Z AUTO 04003KT 07/03 A3015 RMK AO1 SLP208 T00720028
10133 20072 53002





000
SAUS41 KPHI 150555
MTRACY
METAR KACY 150554Z 33005KT 10SM FEW060 SCT090 BKN110 09/07 A3011 RMK
AO2 SLP197 60001 T00940072 10111 20094 51013 $





000
SAUS41 KPHI 150456
MTR12N
METAR K12N 150454Z AUTO 00000KT 08/05 A3015 RMK AO1 SLP208 T00830050
401720083





000
SAUS41 KPHI 150455
MTRACY
METAR KACY 150454Z 00000KT 10SM OVC100 10/07 A3009 RMK AO2 SLP189
T01000072 401720094 $





000
SAUS41 KPHI 150355
MTR12N
METAR K12N 150354Z AUTO 00000KT 09/04 A3014 RMK AO1 SLP207 T00890044





000
SAUS41 KPHI 150355
MTRACY
METAR KACY 150354Z 35005KT 10SM SCT070 OVC090 10/07 A3010 RMK AO2
SLP194 T01000067 $





    US Dept of Commerce
    National Oceanic and Atmospheric Administration
    National Weather Service
    1325 East West Highway
    Silver Spring, MD 20910
    Page Author: NWS Internet Services Team
Disclaimer
Information Quality
Credits
Glossary
Privacy Policy
Freedom of Information Act (FOIA)
About Us
Career Opportunities